createdAt,value
2022-11-29T00:02:59.434Z,85.40
2022-11-29T00:10:39.051Z,85.40
2022-11-29T00:14:21.980Z,85.30
2022-11-29T00:18:04.820Z,85.30
2022-11-29T00:21:46.926Z,85.30
2022-11-29T00:25:29.334Z,85.30
2022-11-29T00:29:13.353Z,85.20
2022-11-29T02:05:42.604Z,85.40
2022-11-29T02:09:24.490Z,85.40
2022-11-29T02:14:02.947Z,85.30
2022-11-29T02:18:24.096Z,84.70
2022-11-29T02:31:35.004Z,85.20
2022-11-29T02:35:55.405Z,85.10
2022-11-29T02:40:14.170Z,85.10
2022-11-29T02:53:13.656Z,85.50
2022-11-29T02:57:28.650Z,85.80
2022-11-29T03:01:26.045Z,85.50
2022-11-29T03:05:30.109Z,85.50
2022-11-29T03:09:24.095Z,85.00
2022-11-29T03:13:16.964Z,85.40
2022-11-29T03:17:28.339Z,85.70
2022-11-29T03:21:38.919Z,85.60
2022-11-29T03:25:29.245Z,85.80
2022-11-29T03:30:01.858Z,86.00
2022-11-29T03:33:58.992Z,85.70
2022-11-29T03:37:48.951Z,85.90
2022-11-29T03:42:00.179Z,86.00
2022-11-29T03:46:06.938Z,85.70
2022-11-29T03:50:07.906Z,86.40
2022-11-29T03:58:10.097Z,86.80
2022-11-29T04:02:10.324Z,86.70
2022-11-29T04:06:07.275Z,86.80
2022-11-29T04:10:01.327Z,86.80
2022-11-29T04:14:10.479Z,85.90
2022-11-29T04:18:26.476Z,86.30
2022-11-29T04:22:27.863Z,86.10
2022-11-29T04:26:36.006Z,86.60
2022-11-29T04:30:22.667Z,86.00
2022-11-29T04:34:23.476Z,86.60
2022-11-29T04:38:28.793Z,85.80
2022-11-29T04:42:22.912Z,86.40
2022-11-29T04:46:53.181Z,86.10
2022-11-29T04:51:06.655Z,85.70
2022-11-29T04:55:24.981Z,85.70
2022-11-29T04:59:23.375Z,85.50
2022-11-29T05:03:16.640Z,86.10
2022-11-29T05:07:27.641Z,86.10
2022-11-29T05:11:26.549Z,85.60
2022-11-29T05:15:47.860Z,86.00
2022-11-29T05:19:50.912Z,85.80
2022-11-29T05:23:58.782Z,86.30
2022-11-29T05:28:09.689Z,85.90
2022-11-29T05:32:32.869Z,86.00
2022-11-29T05:36:33.234Z,85.90
2022-11-29T05:40:42.223Z,86.00
2022-11-29T05:44:48.806Z,86.10
2022-11-29T05:49:25.684Z,85.80
2022-11-29T05:58:04.119Z,86.00
2022-11-29T06:02:12.561Z,85.70
2022-11-29T06:06:03.158Z,86.00
2022-11-29T06:09:51.400Z,86.20
2022-11-29T06:13:38.686Z,86.30
2022-11-29T06:18:06.350Z,86.40
2022-11-29T06:22:21.452Z,86.00
2022-11-29T06:43:23.784Z,86.40
2022-11-29T06:47:09.483Z,86.40
2022-11-29T06:51:00.108Z,86.50
2022-11-29T06:55:01.452Z,86.50
2022-11-29T06:58:58.773Z,86.50
2022-11-29T07:03:06.787Z,86.60
2022-11-29T07:06:49.051Z,86.60
2022-11-29T07:14:14.203Z,86.70
2022-11-29T07:18:22.610Z,86.80
2022-11-29T07:22:08.389Z,86.70
2022-11-29T07:26:15.501Z,86.80
2022-11-29T07:30:10.879Z,86.70
2022-11-29T07:34:10.968Z,86.80
2022-11-29T07:38:14.236Z,86.90
2022-11-29T07:42:18.445Z,87.00
2022-11-29T07:50:14.531Z,87.00
2022-11-29T07:53:56.588Z,87.10
2022-11-29T07:57:38.653Z,87.00
2022-11-29T08:01:20.556Z,87.10
2022-11-29T08:05:04.746Z,87.10
2022-11-29T08:08:47.028Z,87.10
2022-11-29T08:12:29.331Z,87.10
2022-11-29T08:16:16.563Z,87.20
2022-11-29T08:20:02.637Z,87.20
2022-11-29T08:24:17.583Z,87.20
2022-11-29T08:28:03.950Z,87.30
2022-11-29T08:31:46.557Z,87.30
2022-11-29T08:40:42.333Z,87.60
2022-11-29T08:44:24.358Z,87.40
2022-11-29T08:48:06.845Z,87.50
2022-11-29T08:51:51.085Z,87.50
2022-11-29T08:55:43.152Z,87.60
2022-11-29T08:59:30.531Z,87.70
2022-11-29T09:07:58.817Z,87.80
2022-11-29T09:11:40.895Z,87.80
2022-11-29T09:15:28.034Z,87.80
2022-11-29T09:19:13.941Z,87.70
2022-11-29T09:22:56.545Z,87.80
2022-11-29T09:26:41.138Z,87.80
2022-11-29T09:30:23.893Z,87.80
2022-11-29T09:34:05.902Z,87.80
2022-11-29T09:37:53.206Z,87.70
2022-11-29T09:42:04.135Z,87.70
2022-11-29T09:45:58.905Z,87.70
2022-11-29T09:49:58.674Z,87.70
2022-11-29T09:54:22.169Z,87.80
2022-11-29T09:58:09.679Z,87.80
2022-11-29T10:02:03.519Z,87.70
2022-11-29T10:05:50.102Z,87.50
2022-11-29T10:09:33.895Z,87.40
2022-11-29T10:13:24.147Z,87.30
2022-11-29T10:17:19.331Z,87.50
2022-11-29T10:21:11.122Z,87.50
2022-11-29T10:24:58.806Z,87.60
2022-11-29T10:32:49.168Z,87.50
2022-11-29T10:41:19.093Z,87.50
2022-11-29T10:45:02.036Z,87.30
2022-11-29T10:48:44.337Z,87.40
2022-11-29T10:52:26.505Z,87.40
2022-11-29T10:56:31.357Z,87.30
2022-11-29T11:00:14.095Z,87.20
2022-11-29T11:03:57.815Z,87.30
2022-11-29T11:12:26.175Z,87.10
2022-11-29T11:26:23.710Z,86.80
2022-11-29T11:34:43.667Z,86.70
2022-11-29T11:38:28.829Z,86.60
2022-11-29T11:42:45.933Z,86.90
2022-11-29T11:50:44.960Z,87.00
2022-11-29T11:54:31.020Z,86.50
2022-11-29T11:58:32.931Z,86.90
2022-11-29T12:02:40.885Z,86.90
2022-11-29T12:06:29.605Z,86.40
2022-11-29T12:15:12.887Z,86.60
2022-11-29T12:19:21.478Z,86.30
2022-11-29T12:24:03.511Z,86.50
2022-11-29T12:28:02.050Z,86.00
2022-11-29T12:32:07.825Z,86.50
2022-11-29T12:36:13.884Z,86.50
2022-11-29T12:40:34.135Z,86.20
2022-11-29T12:44:45.412Z,85.90
2022-11-29T12:53:47.442Z,85.80
2022-11-29T12:58:03.818Z,86.00
2022-11-29T13:02:03.147Z,86.20
2022-11-29T13:06:13.830Z,86.30
2022-11-29T13:10:18.084Z,86.10
2022-11-29T13:14:43.868Z,85.70
2022-11-29T13:18:40.146Z,86.10
2022-11-29T13:22:58.188Z,86.10
2022-11-29T13:26:55.843Z,85.90
2022-11-29T13:30:50.949Z,86.00
2022-11-29T13:34:44.737Z,86.20
2022-11-29T13:39:15.393Z,86.30
2022-11-29T13:43:24.115Z,86.10
2022-11-29T13:47:19.655Z,86.00
2022-11-29T13:51:41.117Z,86.40
2022-11-29T13:55:34.138Z,86.40
2022-11-29T13:59:31.944Z,86.60
2022-11-29T14:03:28.585Z,86.60
2022-11-29T14:07:19.851Z,86.30
2022-11-29T14:11:09.671Z,86.50
2022-11-29T14:19:38.423Z,86.50
2022-11-29T14:24:04.392Z,86.40
2022-11-29T14:28:07.455Z,86.40
2022-11-29T14:31:52.095Z,86.50
2022-11-29T14:35:50.211Z,86.70
2022-11-29T14:39:41.837Z,86.70
2022-11-29T14:43:36.411Z,86.80
2022-11-29T14:47:30.149Z,86.70
2022-11-29T14:51:15.710Z,86.90
2022-11-29T14:55:21.246Z,86.80
2022-11-29T14:59:43.100Z,86.50
2022-11-29T15:03:33.408Z,86.40
2022-11-29T15:07:19.809Z,86.70
2022-11-29T15:11:34.448Z,86.70
2022-11-29T15:15:30.614Z,86.40
2022-11-29T15:19:47.875Z,86.70
2022-11-29T15:23:41.551Z,86.50
2022-11-29T15:27:24.469Z,86.80
2022-11-29T15:31:14.014Z,86.90
2022-11-29T15:34:57.239Z,86.90
2022-11-29T15:38:51.044Z,87.00
2022-11-29T15:43:11.791Z,87.00
2022-11-29T15:46:53.749Z,86.90
2022-11-29T15:50:37.655Z,87.00
2022-11-29T15:54:47.558Z,87.10
2022-11-29T15:58:35.399Z,86.90
2022-11-29T16:02:19.887Z,87.20
2022-11-29T16:06:53.695Z,87.20
2022-11-29T16:10:48.785Z,86.90
2022-11-29T16:14:34.189Z,87.10
2022-11-29T16:18:23.764Z,87.10
2022-11-29T16:22:16.440Z,87.10
2022-11-29T16:26:04.911Z,87.10
2022-11-29T16:29:58.823Z,87.10
2022-11-29T16:33:42.897Z,87.20
2022-11-29T16:37:31.959Z,87.20
2022-11-29T16:45:40.162Z,86.90
2022-11-29T16:49:40.636Z,87.10
2022-11-29T16:53:52.304Z,86.90
2022-11-29T16:57:41.466Z,86.90
2022-11-29T17:01:48.327Z,87.10
2022-11-29T17:05:37.965Z,87.00
2022-11-29T17:09:31.418Z,87.10
2022-11-29T17:13:15.080Z,87.20
2022-11-29T17:17:02.987Z,87.10
2022-11-29T17:20:45.651Z,87.30
2022-11-29T17:24:28.628Z,87.30
2022-11-29T17:28:10.757Z,87.30
2022-11-29T17:31:59.468Z,87.30
2022-11-29T17:35:46.065Z,87.40
2022-11-29T17:39:32.220Z,87.40
2022-11-29T17:43:15.766Z,87.30
2022-11-29T17:47:01.324Z,87.30
2022-11-29T17:50:43.459Z,87.40
2022-11-29T17:54:28.681Z,87.30
2022-11-29T17:58:11.877Z,87.30
2022-11-29T18:01:55.270Z,87.30
2022-11-29T18:05:40.821Z,87.20
2022-11-29T18:09:23.234Z,87.20
2022-11-29T18:13:13.694Z,87.30
2022-11-29T18:16:57.965Z,87.20
2022-11-29T18:20:43.707Z,87.20
2022-11-29T18:24:27.987Z,87.20
2022-11-29T18:28:15.472Z,87.20
2022-11-29T18:31:59.382Z,87.30
2022-11-29T18:35:41.729Z,87.30
2022-11-29T18:39:27.488Z,87.30
2022-11-29T18:43:11.057Z,87.30
2022-11-29T18:46:53.791Z,87.30
2022-11-29T18:50:42.004Z,87.30
2022-11-29T18:54:24.629Z,87.40
2022-11-29T18:58:10.086Z,87.30
2022-11-29T19:01:54.568Z,87.30
2022-11-29T19:05:39.622Z,87.30
2022-11-29T19:09:22.519Z,87.30
2022-11-29T19:13:06.136Z,87.20
2022-11-29T19:16:51.102Z,87.30
2022-11-29T19:20:34.336Z,87.40
2022-11-29T19:24:18.801Z,87.30
2022-11-29T19:28:03.454Z,87.30
2022-11-29T19:31:50.210Z,87.30
2022-11-29T19:35:32.309Z,87.40
2022-11-29T19:39:17.388Z,87.10
2022-11-29T19:43:00.009Z,87.30
2022-11-29T19:46:53.798Z,87.30
2022-11-29T19:50:38.509Z,87.30
2022-11-29T19:55:04.692Z,87.40
2022-11-29T19:58:47.285Z,87.40
2022-11-29T20:02:32.081Z,87.40
2022-11-29T20:06:16.033Z,87.40
2022-11-29T20:10:03.797Z,87.40
2022-11-29T20:13:47.993Z,87.40
2022-11-29T20:17:30.319Z,87.40
2022-11-29T20:21:16.497Z,87.50
2022-11-29T20:25:01.835Z,87.50
2022-11-29T20:28:47.101Z,87.50
2022-11-29T20:32:35.011Z,87.40
2022-11-29T20:36:27.051Z,87.50
2022-11-29T20:40:20.327Z,87.50
2022-11-29T20:44:06.365Z,87.50
2022-11-29T20:48:00.955Z,87.50
2022-11-29T20:52:08.781Z,87.40
2022-11-29T20:55:51.313Z,87.30
2022-11-29T20:59:36.707Z,87.60
2022-11-29T21:03:21.324Z,87.60
2022-11-29T21:07:05.955Z,87.60
2022-11-29T21:10:54.363Z,87.60
2022-11-29T21:18:58.185Z,87.50
2022-11-29T21:23:03.449Z,87.50
2022-11-29T21:26:52.126Z,87.10
2022-11-29T21:30:45.271Z,87.30
2022-11-29T21:34:29.085Z,87.30
2022-11-29T21:38:22.047Z,87.40
2022-11-29T21:42:12.568Z,87.40
2022-11-29T21:45:56.095Z,87.20
2022-11-29T21:49:44.298Z,87.30
2022-11-29T21:53:33.077Z,87.40
2022-11-29T21:57:19.220Z,87.40
2022-11-29T22:01:20.620Z,87.30
2022-11-29T22:05:04.307Z,87.20
2022-11-29T22:08:54.203Z,87.30
2022-11-29T22:12:38.252Z,87.30
2022-11-29T22:16:23.573Z,87.30
2022-11-29T22:20:37.617Z,87.30
2022-11-29T22:24:23.752Z,87.30
2022-11-29T22:28:07.506Z,87.40
2022-11-29T22:31:57.086Z,87.30
2022-11-29T22:35:48.793Z,87.40
2022-11-29T22:39:39.266Z,87.30
2022-11-29T22:43:22.644Z,87.40
2022-11-29T22:47:05.771Z,87.40
2022-11-29T22:50:55.032Z,87.40
2022-11-29T22:54:40.485Z,87.30
2022-11-29T23:02:54.986Z,87.30
2022-11-29T23:21:33.716Z,87.00
2022-11-29T23:25:23.703Z,87.00
2022-11-29T23:29:34.562Z,87.20
2022-11-29T23:33:17.263Z,87.30
2022-11-29T23:37:04.036Z,87.30
2022-11-29T23:40:49.617Z,87.40
2022-11-29T23:58:38.058Z,87.20
